Terminal Aerodrome Forecast
Issued by NWS

Home | Current Version | Previous Version | Text Only | Print | Product List | Glossary On
Versions: 1 2 3 4 5 6 7 8 9 10 11 12
000
FTUS46 KSEW 272300
TAFCLM
TAF
KCLM 272320Z 2800/2824 09003KT P6SM SCT250
     FM280900 28009KT P6SM SCT035 BKN060
     FM281300 VRB04KT P6SM -RA BKN035 OVC060
     FM281800 28014KT P6SM VCSH SCT035 BKN060=

USA.gov is the U.S. government's official web portal to all federal, state and local government web resources and services.